sensor_id;sensor_type;location;lat;lon;timestamp;P1;durP1;ratioP1;P2;durP2;ratioP2
74483;SDS011;62942;52.462;10.846;2023-08-08T00:00:21;2;;;5.2;;
74483;SDS011;62942;52.462;10.846;2023-08-08T00:01:31;2;;;4.6;;
74483;SDS011;62942;52.462;10.846;2023-08-08T00:02:41;1.8;;;4.4;;
74483;SDS011;62942;52.462;10.846;2023-08-08T00:03:41;2;;;6.5;;
74483;SDS011;62942;52.462;10.846;2023-08-08T00:04:51;1.9;;;5.9;;
74483;SDS011;62942;52.462;10.846;2023-08-08T00:05:51;1.9;;;5.6;;
74483;SDS011;62942;52.462;10.846;2023-08-08T00:07:02;1.8;;;5.6;;
74483;SDS011;62942;52.462;10.846;2023-08-08T00:08:11;2;;;5.4;;
74483;SDS011;62942;52.462;10.846;2023-08-08T00:09:11;1.9;;;5.9;;
74483;SDS011;62942;52.462;10.846;2023-08-08T00:10:21;2;;;4.3;;
74483;SDS011;62942;52.462;10.846;2023-08-08T00:11:31;1.8;;;6;;
74483;SDS011;62942;52.462;10.846;2023-08-08T00:12:41;1.9;;;4.8;;
74483;SDS011;62942;52.462;10.846;2023-08-08T00:13:51;1.9;;;6.8;;
74483;SDS011;62942;52.462;10.846;2023-08-08T00:14:51;2.1;;;5.8;;
74483;SDS011;62942;52.462;10.846;2023-08-08T00:15:51;1.9;;;4.5;;
74483;SDS011;62942;52.462;10.846;2023-08-08T00:17:01;2.1;;;6.7;;
74483;SDS011;62942;52.462;10.846;2023-08-08T00:18:01;2.1;;;6.2;;
74483;SDS011;62942;52.462;10.846;2023-08-08T00:19:11;1.9;;;4.6;;
74483;SDS011;62942;52.462;10.846;2023-08-08T00:20:11;2;;;7;;
74483;SDS011;62942;52.462;10.846;2023-08-08T00:21:21;2.1;;;5.3;;
74483;SDS011;62942;52.462;10.846;2023-08-08T00:22:31;1.9;;;5;;
74483;SDS011;62942;52.462;10.846;2023-08-08T00:23:31;1.9;;;4;;
74483;SDS011;62942;52.462;10.846;2023-08-08T00:24:41;2.1;;;5.9;;
74483;SDS011;62942;52.462;10.846;2023-08-08T00:25:51;2.2;;;7.7;;
74483;SDS011;62942;52.462;10.846;2023-08-08T00:26:51;2;;;5.8;;
74483;SDS011;62942;52.462;10.846;2023-08-08T00:27:51;2;;;5.7;;
74483;SDS011;62942;52.462;10.846;2023-08-08T00:28:51;2.1;;;7;;
74483;SDS011;62942;52.462;10.846;2023-08-08T00:30:02;2.2;;;5.2;;
74483;SDS011;62942;52.462;10.846;2023-08-08T00:31:01;2.1;;;4.8;;
74483;SDS011;62942;52.462;10.846;2023-08-08T00:32:11;2.2;;;5;;
74483;SDS011;62942;52.462;10.846;2023-08-08T00:33:21;2.2;;;7.1;;
74483;SDS011;62942;52.462;10.846;2023-08-08T00:34:21;2.2;;;5.4;;
74483;SDS011;62942;52.462;10.846;2023-08-08T00:35:31;2.4;;;6.2;;
74483;SDS011;62942;52.462;10.846;2023-08-08T00:36:31;2.1;;;5.7;;
74483;SDS011;62942;52.462;10.846;2023-08-08T00:37:41;1.8;;;5.2;;
74483;SDS011;62942;52.462;10.846;2023-08-08T00:38:51;2;;;5.7;;
74483;SDS011;62942;52.462;10.846;2023-08-08T00:40:01;2.1;;;5.6;;
74483;SDS011;62942;52.462;10.846;2023-08-08T00:41:11;2.3;;;7.8;;
74483;SDS011;62942;52.462;10.846;2023-08-08T00:42:21;2.1;;;5;;
74483;SDS011;62942;52.462;10.846;2023-08-08T00:43:21;2.2;;;7.4;;
74483;SDS011;62942;52.462;10.846;2023-08-08T00:44:21;1.9;;;5.2;;
74483;SDS011;62942;52.462;10.846;2023-08-08T00:45:31;2.1;;;6.1;;
74483;SDS011;62942;52.462;10.846;2023-08-08T00:46:41;2.2;;;6.8;;
74483;SDS011;62942;52.462;10.846;2023-08-08T00:47:51;1.9;;;6.4;;
74483;SDS011;62942;52.462;10.846;2023-08-08T00:49:01;2.2;;;5.8;;
74483;SDS011;62942;52.462;10.846;2023-08-08T00:50:11;2.1;;;5.8;;
74483;SDS011;62942;52.462;10.846;2023-08-08T00:51:21;2;;;4.8;;
74483;SDS011;62942;52.462;10.846;2023-08-08T00:52:21;2.2;;;6.5;;
74483;SDS011;62942;52.462;10.846;2023-08-08T00:53:21;1.9;;;5.2;;
74483;SDS011;62942;52.462;10.846;2023-08-08T00:54:31;2.2;;;6.2;;
74483;SDS011;62942;52.462;10.846;2023-08-08T00:55:31;2.1;;;6.6;;
74483;SDS011;62942;52.462;10.846;2023-08-08T00:56:31;2.1;;;5.7;;
74483;SDS011;62942;52.462;10.846;2023-08-08T00:57:41;2.3;;;6.2;;
74483;SDS011;62942;52.462;10.846;2023-08-08T00:58:41;1.9;;;5.2;;
74483;SDS011;62942;52.462;10.846;2023-08-08T00:59:51;2.1;;;5.1;;
74483;SDS011;62942;52.462;10.846;2023-08-08T01:00:51;2.2;;;6.1;;
74483;SDS011;62942;52.462;10.846;2023-08-08T01:02:01;2;;;3.9;;
74483;SDS011;62942;52.462;10.846;2023-08-08T01:03:11;2.2;;;7.9;;
74483;SDS011;62942;52.462;10.846;2023-08-08T01:04:21;2.2;;;4.7;;
74483;SDS011;62942;52.462;10.846;2023-08-08T01:05:32;2;;;6.1;;
74483;SDS011;62942;52.462;10.846;2023-08-08T01:06:34;2.2;;;6.3;;
74483;SDS011;62942;52.462;10.846;2023-08-08T01:07:43;2.3;;;5.6;;
74483;SDS011;62942;52.462;10.846;2023-08-08T01:08:54;2.2;;;6;;
74483;SDS011;62942;52.462;10.846;2023-08-08T01:10:02;2.3;;;8;;
74483;SDS011;62942;52.462;10.846;2023-08-08T01:11:11;2.5;;;5.8;;
74483;SDS011;62942;52.462;10.846;2023-08-08T01:12:21;2.2;;;6.2;;
74483;SDS011;62942;52.462;10.846;2023-08-08T01:13:22;2.3;;;6.1;;
74483;SDS011;62942;52.462;10.846;2023-08-08T01:14:31;2.4;;;8.4;;
74483;SDS011;62942;52.462;10.846;2023-08-08T01:15:41;2.2;;;5.8;;
74483;SDS011;62942;52.462;10.846;2023-08-08T01:16:52;2.6;;;6.4;;
74483;SDS011;62942;52.462;10.846;2023-08-08T01:18:02;2.1;;;5.1;;
74483;SDS011;62942;52.462;10.846;2023-08-08T01:19:11;2.1;;;5.8;;
74483;SDS011;62942;52.462;10.846;2023-08-08T01:20:21;2.3;;;5.7;;
74483;SDS011;62942;52.462;10.846;2023-08-08T01:21:21;2.1;;;5.3;;
74483;SDS011;62942;52.462;10.846;2023-08-08T01:22:23;2.2;;;6.6;;
74483;SDS011;62942;52.462;10.846;2023-08-08T01:23:33;2.4;;;5.6;;
74483;SDS011;62942;52.462;10.846;2023-08-08T01:24:41;2.3;;;6.1;;
74483;SDS011;62942;52.462;10.846;2023-08-08T01:25:51;2.4;;;7.4;;
74483;SDS011;62942;52.462;10.846;2023-08-08T01:26:51;2.4;;;7.2;;
74483;SDS011;62942;52.462;10.846;2023-08-08T01:28:01;2.3;;;5.3;;
74483;SDS011;62942;52.462;10.846;2023-08-08T01:29:11;2.5;;;6;;
74483;SDS011;62942;52.462;10.846;2023-08-08T01:30:21;2.1;;;6;;
74483;SDS011;62942;52.462;10.846;2023-08-08T01:31:31;2.5;;;7.7;;
74483;SDS011;62942;52.462;10.846;2023-08-08T01:32:41;2.5;;;6.5;;
74483;SDS011;62942;52.462;10.846;2023-08-08T01:33:51;2.4;;;5.5;;
74483;SDS011;62942;52.462;10.846;2023-08-08T01:34:51;2.4;;;6.3;;
74483;SDS011;62942;52.462;10.846;2023-08-08T01:36:02;2.5;;;7;;
74483;SDS011;62942;52.462;10.846;2023-08-08T01:37:02;2.2;;;5.1;;
74483;SDS011;62942;52.462;10.846;2023-08-08T01:38:14;2.5;;;6.2;;
74483;SDS011;62942;52.462;10.846;2023-08-08T01:39:13;2.5;;;5.8;;
74483;SDS011;62942;52.462;10.846;2023-08-08T01:40:21;2.7;;;6.8;;
74483;SDS011;62942;52.462;10.846;2023-08-08T01:41:21;2.5;;;6.7;;
74483;SDS011;62942;52.462;10.846;2023-08-08T01:42:31;2.6;;;6.5;;
74483;SDS011;62942;52.462;10.846;2023-08-08T01:43:31;2.4;;;6.2;;
74483;SDS011;62942;52.462;10.846;2023-08-08T01:44:41;2.4;;;4.8;;
74483;SDS011;62942;52.462;10.846;2023-08-08T01:45:51;2.5;;;5.6;;
74483;SDS011;62942;52.462;10.846;2023-08-08T01:47:01;2.6;;;7;;
74483;SDS011;62942;52.462;10.846;2023-08-08T01:48:05;2.4;;;6.1;;
74483;SDS011;62942;52.462;10.846;2023-08-08T01:49:11;2.4;;;6.8;;
74483;SDS011;62942;52.462;10.846;2023-08-08T01:50:11;2.4;;;6.6;;
74483;SDS011;62942;52.462;10.846;2023-08-08T01:51:21;2.5;;;5.4;;
74483;SDS011;62942;52.462;10.846;2023-08-08T01:52:31;2.5;;;6;;
74483;SDS011;62942;52.462;10.846;2023-08-08T01:53:41;2.6;;;7.9;;
74483;SDS011;62942;52.462;10.846;2023-08-08T01:54:51;2.5;;;7.1;;
74483;SDS011;62942;52.462;10.846;2023-08-08T01:55:51;2.4;;;6.3;;
74483;SDS011;62942;52.462;10.846;2023-08-08T01:56:51;2.8;;;6.8;;
74483;SDS011;62942;52.462;10.846;2023-08-08T01:58:01;2.7;;;5.5;;
74483;SDS011;62942;52.462;10.846;2023-08-08T01:59:11;2.5;;;6.3;;
74483;SDS011;62942;52.462;10.846;2023-08-08T02:00:11;2.7;;;6.8;;
74483;SDS011;62942;52.462;10.846;2023-08-08T02:01:21;2.4;;;6;;
74483;SDS011;62942;52.462;10.846;2023-08-08T02:02:31;2.8;;;7.9;;
74483;SDS011;62942;52.462;10.846;2023-08-08T02:03:31;2.7;;;7.3;;
74483;SDS011;62942;52.462;10.846;2023-08-08T02:04:31;2.5;;;6.8;;
74483;SDS011;62942;52.462;10.846;2023-08-08T02:05:41;2.3;;;5.4;;
74483;SDS011;62942;52.462;10.846;2023-08-08T02:06:41;2.3;;;6.3;;
74483;SDS011;62942;52.462;10.846;2023-08-08T02:07:51;2.5;;;5.3;;
74483;SDS011;62942;52.462;10.846;2023-08-08T02:09:01;2.6;;;7.3;;
74483;SDS011;62942;52.462;10.846;2023-08-08T02:10:11;2.6;;;5.8;;
74483;SDS011;62942;52.462;10.846;2023-08-08T02:11:21;2.4;;;4.9;;
74483;SDS011;62942;52.462;10.846;2023-08-08T02:12:31;2.7;;;7.5;;
74483;SDS011;62942;52.462;10.846;2023-08-08T02:13:31;2.3;;;5.4;;
74483;SDS011;62942;52.462;10.846;2023-08-08T02:14:41;2.5;;;5.5;;
74483;SDS011;62942;52.462;10.846;2023-08-08T02:15:41;2.5;;;5.8;;
74483;SDS011;62942;52.462;10.846;2023-08-08T02:16:51;2.4;;;5.6;;
74483;SDS011;62942;52.462;10.846;2023-08-08T02:18:01;2.7;;;6.3;;
74483;SDS011;62942;52.462;10.846;2023-08-08T02:19:11;2.6;;;5.1;;
74483;SDS011;62942;52.462;10.846;2023-08-08T02:20:11;2.5;;;5.6;;
74483;SDS011;62942;52.462;10.846;2023-08-08T02:21:21;2.8;;;6.1;;
74483;SDS011;62942;52.462;10.846;2023-08-08T02:22:31;2.4;;;6.3;;
74483;SDS011;62942;52.462;10.846;2023-08-08T02:23:31;2.5;;;5.1;;
74483;SDS011;62942;52.462;10.846;2023-08-08T02:24:41;2.5;;;8.2;;
74483;SDS011;62942;52.462;10.846;2023-08-08T02:25:41;2.8;;;6.7;;
74483;SDS011;62942;52.462;10.846;2023-08-08T02:26:41;2.6;;;5.8;;
74483;SDS011;62942;52.462;10.846;2023-08-08T02:27:51;2.7;;;5.8;;
74483;SDS011;62942;52.462;10.846;2023-08-08T02:28:51;2.6;;;6.9;;
74483;SDS011;62942;52.462;10.846;2023-08-08T02:30:01;2.6;;;5.6;;
74483;SDS011;62942;52.462;10.846;2023-08-08T02:31:11;2.6;;;5.1;;
74483;SDS011;62942;52.462;10.846;2023-08-08T02:32:11;2.6;;;6;;
74483;SDS011;62942;52.462;10.846;2023-08-08T02:33:11;2.6;;;6.5;;
74483;SDS011;62942;52.462;10.846;2023-08-08T02:34:21;2.5;;;6.9;;
74483;SDS011;62942;52.462;10.846;2023-08-08T02:35:31;2.7;;;5.3;;
74483;SDS011;62942;52.462;10.846;2023-08-08T02:36:41;2.7;;;6.2;;
74483;SDS011;62942;52.462;10.846;2023-08-08T02:37:41;2.7;;;6.7;;
74483;SDS011;62942;52.462;10.846;2023-08-08T02:38:51;2.9;;;7.1;;
74483;SDS011;62942;52.462;10.846;2023-08-08T02:39:51;2.6;;;5.5;;
74483;SDS011;62942;52.462;10.846;2023-08-08T02:40:51;2.6;;;7.1;;
74483;SDS011;62942;52.462;10.846;2023-08-08T02:42:01;2.8;;;6.3;;
74483;SDS011;62942;52.462;10.846;2023-08-08T02:43:11;2.7;;;6.9;;
74483;SDS011;62942;52.462;10.846;2023-08-08T02:44:21;2.6;;;4.9;;
74483;SDS011;62942;52.462;10.846;2023-08-08T02:45:31;2.6;;;6.7;;
74483;SDS011;62942;52.462;10.846;2023-08-08T02:46:41;2.8;;;6.7;;
74483;SDS011;62942;52.462;10.846;2023-08-08T02:47:51;2.6;;;6.2;;
74483;SDS011;62942;52.462;10.846;2023-08-08T02:48:51;2.5;;;6.2;;
74483;SDS011;62942;52.462;10.846;2023-08-08T02:49:51;2.7;;;5.4;;
74483;SDS011;62942;52.462;10.846;2023-08-08T02:51:01;2.7;;;5.4;;
74483;SDS011;62942;52.462;10.846;2023-08-08T02:52:01;2.8;;;6;;
74483;SDS011;62942;52.462;10.846;2023-08-08T02:53:11;2.6;;;5.1;;
74483;SDS011;62942;52.462;10.846;2023-08-08T02:54:11;2.9;;;6.7;;
74483;SDS011;62942;52.462;10.846;2023-08-08T02:55:21;2.7;;;5.7;;
74483;SDS011;62942;52.462;10.846;2023-08-08T02:56:31;2.8;;;5.5;;
74483;SDS011;62942;52.462;10.846;2023-08-08T02:57:41;2.9;;;7;;
74483;SDS011;62942;52.462;10.846;2023-08-08T02:58:51;2.7;;;5.7;;
74483;SDS011;62942;52.462;10.846;2023-08-08T02:59:51;2.6;;;6.6;;
74483;SDS011;62942;52.462;10.846;2023-08-08T03:01:01;2.8;;;8.1;;
74483;SDS011;62942;52.462;10.846;2023-08-08T03:02:11;2.6;;;6.2;;
74483;SDS011;62942;52.462;10.846;2023-08-08T03:03:11;2.8;;;7.4;;
74483;SDS011;62942;52.462;10.846;2023-08-08T03:04:21;2.6;;;5.5;;
74483;SDS011;62942;52.462;10.846;2023-08-08T03:05:21;2.7;;;6.6;;
74483;SDS011;62942;52.462;10.846;2023-08-08T03:06:31;2.9;;;5.7;;
74483;SDS011;62942;52.462;10.846;2023-08-08T03:07:31;2.9;;;6.6;;
74483;SDS011;62942;52.462;10.846;2023-08-08T03:08:31;2.9;;;6;;
74483;SDS011;62942;52.462;10.846;2023-08-08T03:09:31;3;;;6.6;;
74483;SDS011;62942;52.462;10.846;2023-08-08T03:10:41;2.7;;;5.1;;
74483;SDS011;62942;52.462;10.846;2023-08-08T03:11:41;2.9;;;5.5;;
74483;SDS011;62942;52.462;10.846;2023-08-08T03:12:51;3;;;5.4;;
74483;SDS011;62942;52.462;10.846;2023-08-08T03:14:01;2.9;;;5.8;;
74483;SDS011;62942;52.462;10.846;2023-08-08T03:15:11;3.1;;;5.7;;
74483;SDS011;62942;52.462;10.846;2023-08-08T03:16:21;2.8;;;5.3;;
74483;SDS011;62942;52.462;10.846;2023-08-08T03:17:31;2.8;;;5;;
74483;SDS011;62942;52.462;10.846;2023-08-08T03:18:31;3.1;;;6.8;;
74483;SDS011;62942;52.462;10.846;2023-08-08T03:19:41;3.1;;;6.5;;
74483;SDS011;62942;52.462;10.846;2023-08-08T03:20:51;2.8;;;6.3;;
74483;SDS011;62942;52.462;10.846;2023-08-08T03:22:01;3;;;6.4;;
74483;SDS011;62942;52.462;10.846;2023-08-08T03:23:11;2.9;;;6.6;;
74483;SDS011;62942;52.462;10.846;2023-08-08T03:24:21;2.8;;;6.7;;
74483;SDS011;62942;52.462;10.846;2023-08-08T03:25:31;2.9;;;6.5;;
74483;SDS011;62942;52.462;10.846;2023-08-08T03:26:41;3.2;;;8;;
74483;SDS011;62942;52.462;10.846;2023-08-08T03:27:51;3.1;;;6.2;;
74483;SDS011;62942;52.462;10.846;2023-08-08T03:29:01;3;;;5.3;;
74483;SDS011;62942;52.462;10.846;2023-08-08T03:30:11;2.8;;;5.1;;
74483;SDS011;62942;52.462;10.846;2023-08-08T03:31:11;3;;;7.5;;
74483;SDS011;62942;52.462;10.846;2023-08-08T03:32:21;2.9;;;5.8;;
74483;SDS011;62942;52.462;10.846;2023-08-08T03:33:21;2.9;;;5.1;;
74483;SDS011;62942;52.462;10.846;2023-08-08T03:34:31;3;;;6.1;;
74483;SDS011;62942;52.462;10.846;2023-08-08T03:35:31;3;;;5.8;;
74483;SDS011;62942;52.462;10.846;2023-08-08T03:36:41;3;;;6.4;;
74483;SDS011;62942;52.462;10.846;2023-08-08T03:37:51;3.1;;;7.6;;
74483;SDS011;62942;52.462;10.846;2023-08-08T03:39:01;3.1;;;5.4;;
74483;SDS011;62942;52.462;10.846;2023-08-08T03:40:01;3.3;;;8.5;;
74483;SDS011;62942;52.462;10.846;2023-08-08T03:41:11;3.2;;;6.1;;
74483;SDS011;62942;52.462;10.846;2023-08-08T03:42:21;2.9;;;5.6;;
74483;SDS011;62942;52.462;10.846;2023-08-08T03:43:21;3.3;;;7.1;;
74483;SDS011;62942;52.462;10.846;2023-08-08T03:44:31;3;;;5.3;;
74483;SDS011;62942;52.462;10.846;2023-08-08T03:45:31;3.4;;;6.5;;
74483;SDS011;62942;52.462;10.846;2023-08-08T03:46:41;3.4;;;6.7;;
74483;SDS011;62942;52.462;10.846;2023-08-08T03:47:51;3.4;;;6.8;;
74483;SDS011;62942;52.462;10.846;2023-08-08T03:49:01;3.2;;;6.4;;
74483;SDS011;62942;52.462;10.846;2023-08-08T03:50:11;3.4;;;7.3;;
74483;SDS011;62942;52.462;10.846;2023-08-08T03:51:21;3.4;;;7.4;;
74483;SDS011;62942;52.462;10.846;2023-08-08T03:52:31;3.2;;;6.3;;
74483;SDS011;62942;52.462;10.846;2023-08-08T03:53:41;3.3;;;6.4;;
74483;SDS011;62942;52.462;10.846;2023-08-08T03:54:51;3.2;;;6.7;;
74483;SDS011;62942;52.462;10.846;2023-08-08T03:55:51;3.3;;;7.1;;
74483;SDS011;62942;52.462;10.846;2023-08-08T03:57:01;3.3;;;6.8;;
74483;SDS011;62942;52.462;10.846;2023-08-08T03:58:11;3.4;;;7.7;;
74483;SDS011;62942;52.462;10.846;2023-08-08T03:59:11;3.5;;;6.9;;
74483;SDS011;62942;52.462;10.846;2023-08-08T04:00:21;3.5;;;8;;
74483;SDS011;62942;52.462;10.846;2023-08-08T04:01:31;3.3;;;6.1;;
74483;SDS011;62942;52.462;10.846;2023-08-08T04:02:31;3.1;;;6.2;;
74483;SDS011;62942;52.462;10.846;2023-08-08T04:03:41;3.2;;;6.1;;
74483;SDS011;62942;52.462;10.846;2023-08-08T04:04:41;3.5;;;7.4;;
74483;SDS011;62942;52.462;10.846;2023-08-08T04:05:51;3.3;;;7.2;;
74483;SDS011;62942;52.462;10.846;2023-08-08T04:07:01;3.6;;;7.1;;
74483;SDS011;62942;52.462;10.846;2023-08-08T04:08:11;3.4;;;6.5;;
74483;SDS011;62942;52.462;10.846;2023-08-08T04:09:21;3.5;;;6.5;;
74483;SDS011;62942;52.462;10.846;2023-08-08T04:10:21;3.5;;;6.7;;
74483;SDS011;62942;52.462;10.846;2023-08-08T04:11:31;3.6;;;7;;
74483;SDS011;62942;52.462;10.846;2023-08-08T04:12:41;3.3;;;6.4;;
74483;SDS011;62942;52.462;10.846;2023-08-08T04:13:51;3.4;;;5.7;;
74483;SDS011;62942;52.462;10.846;2023-08-08T04:14:51;3.4;;;7.3;;
74483;SDS011;62942;52.462;10.846;2023-08-08T04:16:01;3.1;;;6.2;;
74483;SDS011;62942;52.462;10.846;2023-08-08T04:17:11;3.3;;;5.6;;
74483;SDS011;62942;52.462;10.846;2023-08-08T04:18:21;3.3;;;6.7;;
74483;SDS011;62942;52.462;10.846;2023-08-08T04:19:31;3.5;;;7.6;;
74483;SDS011;62942;52.462;10.846;2023-08-08T04:20:41;3.5;;;5.9;;
74483;SDS011;62942;52.462;10.846;2023-08-08T04:21:41;3.5;;;7.5;;
74483;SDS011;62942;52.462;10.846;2023-08-08T04:22:51;3.7;;;7.3;;
74483;SDS011;62942;52.462;10.846;2023-08-08T04:24:01;3.1;;;5.5;;
74483;SDS011;62942;52.462;10.846;2023-08-08T04:25:11;3.3;;;5.5;;
74483;SDS011;62942;52.462;10.846;2023-08-08T04:26:21;3.3;;;6.1;;
74483;SDS011;62942;52.462;10.846;2023-08-08T04:27:21;3.2;;;5.6;;
74483;SDS011;62942;52.462;10.846;2023-08-08T04:28:31;3.4;;;5.2;;
74483;SDS011;62942;52.462;10.846;2023-08-08T04:29:31;3.4;;;7.7;;
74483;SDS011;62942;52.462;10.846;2023-08-08T04:30:41;3.4;;;8;;
74483;SDS011;62942;52.462;10.846;2023-08-08T04:31:41;3.4;;;6.4;;
74483;SDS011;62942;52.462;10.846;2023-08-08T04:32:51;3.1;;;6.3;;
74483;SDS011;62942;52.462;10.846;2023-08-08T04:34:02;3.4;;;6.4;;
74483;SDS011;62942;52.462;10.846;2023-08-08T04:35:11;3.2;;;8.7;;
74483;SDS011;62942;52.462;10.846;2023-08-08T04:36:21;3.3;;;7.3;;
74483;SDS011;62942;52.462;10.846;2023-08-08T04:37:31;3.3;;;6.2;;
74483;SDS011;62942;52.462;10.846;2023-08-08T04:38:41;3.5;;;6.3;;
74483;SDS011;62942;52.462;10.846;2023-08-08T04:39:51;3.5;;;7.9;;
74483;SDS011;62942;52.462;10.846;2023-08-08T04:41:01;3.5;;;7.6;;
74483;SDS011;62942;52.462;10.846;2023-08-08T04:42:11;3.5;;;7.2;;
74483;SDS011;62942;52.462;10.846;2023-08-08T04:43:21;3.2;;;5.1;;
74483;SDS011;62942;52.462;10.846;2023-08-08T04:44:21;3.4;;;6.8;;
74483;SDS011;62942;52.462;10.846;2023-08-08T04:45:31;3.4;;;9.2;;
74483;SDS011;62942;52.462;10.846;2023-08-08T04:46:41;3.4;;;9.3;;
74483;SDS011;62942;52.462;10.846;2023-08-08T04:47:51;3.4;;;7.4;;
74483;SDS011;62942;52.462;10.846;2023-08-08T04:48:51;3.3;;;6.8;;
74483;SDS011;62942;52.462;10.846;2023-08-08T04:50:01;3.5;;;7.9;;
74483;SDS011;62942;52.462;10.846;2023-08-08T04:51:11;3.2;;;6.9;;
74483;SDS011;62942;52.462;10.846;2023-08-08T04:52:11;3.3;;;5.9;;
74483;SDS011;62942;52.462;10.846;2023-08-08T04:53:11;3.2;;;6.3;;
74483;SDS011;62942;52.462;10.846;2023-08-08T04:54:21;3.1;;;5.3;;
74483;SDS011;62942;52.462;10.846;2023-08-08T04:55:31;3.2;;;7.2;;
74483;SDS011;62942;52.462;10.846;2023-08-08T04:56:41;3.5;;;7.2;;
74483;SDS011;62942;52.462;10.846;2023-08-08T04:57:41;3.2;;;6.3;;
74483;SDS011;62942;52.462;10.846;2023-08-08T04:58:51;3.2;;;6;;
74483;SDS011;62942;52.462;10.846;2023-08-08T04:59:51;3.2;;;6.9;;
74483;SDS011;62942;52.462;10.846;2023-08-08T05:00:51;3.4;;;10.5;;
74483;SDS011;62942;52.462;10.846;2023-08-08T05:02:01;3;;;7.5;;
74483;SDS011;62942;52.462;10.846;2023-08-08T05:03:11;3.1;;;5.9;;
74483;SDS011;62942;52.462;10.846;2023-08-08T05:04:11;3.2;;;7.4;;
74483;SDS011;62942;52.462;10.846;2023-08-08T05:05:21;3.2;;;6.3;;
74483;SDS011;62942;52.462;10.846;2023-08-08T05:06:21;3;;;5.2;;
74483;SDS011;62942;52.462;10.846;2023-08-08T05:07:31;3.2;;;7;;
74483;SDS011;62942;52.462;10.846;2023-08-08T05:08:41;3.4;;;5.9;;
74483;SDS011;62942;52.462;10.846;2023-08-08T05:09:51;3.3;;;6.8;;
74483;SDS011;62942;52.462;10.846;2023-08-08T05:10:51;3;;;5.1;;
74483;SDS011;62942;52.462;10.846;2023-08-08T05:12:01;3.1;;;5.8;;
74483;SDS011;62942;52.462;10.846;2023-08-08T05:13:01;3;;;5.7;;
74483;SDS011;62942;52.462;10.846;2023-08-08T05:14:01;3.2;;;7.8;;
74483;SDS011;62942;52.462;10.846;2023-08-08T05:15:11;3.1;;;6.7;;
74483;SDS011;62942;52.462;10.846;2023-08-08T05:16:21;2.9;;;5;;
74483;SDS011;62942;52.462;10.846;2023-08-08T05:17:31;3.1;;;6.6;;
74483;SDS011;62942;52.462;10.846;2023-08-08T05:18:41;2.9;;;5.2;;
74483;SDS011;62942;52.462;10.846;2023-08-08T05:19:41;3.2;;;5.6;;
74483;SDS011;62942;52.462;10.846;2023-08-08T05:20:51;3;;;5.9;;
74483;SDS011;62942;52.462;10.846;2023-08-08T05:21:51;3;;;5.7;;
74483;SDS011;62942;52.462;10.846;2023-08-08T05:22:51;3;;;6.4;;
74483;SDS011;62942;52.462;10.846;2023-08-08T05:24:01;2.8;;;5.1;;
74483;SDS011;62942;52.462;10.846;2023-08-08T05:25:11;2.9;;;5.4;;
74483;SDS011;62942;52.462;10.846;2023-08-08T05:26:21;3;;;7.3;;
74483;SDS011;62942;52.462;10.846;2023-08-08T05:27:31;2.8;;;5.7;;
74483;SDS011;62942;52.462;10.846;2023-08-08T05:28:41;2.9;;;6;;
74483;SDS011;62942;52.462;10.846;2023-08-08T05:29:41;2.6;;;5.9;;
74483;SDS011;62942;52.462;10.846;2023-08-08T05:30:51;2.7;;;6.1;;
74483;SDS011;62942;52.462;10.846;2023-08-08T05:32:01;2.8;;;6.4;;
74483;SDS011;62942;52.462;10.846;2023-08-08T05:33:01;2.8;;;7;;
74483;SDS011;62942;52.462;10.846;2023-08-08T05:34:01;2.8;;;6.1;;
74483;SDS011;62942;52.462;10.846;2023-08-08T05:35:11;2.6;;;5.7;;
74483;SDS011;62942;52.462;10.846;2023-08-08T05:36:21;2.5;;;4.3;;
74483;SDS011;62942;52.462;10.846;2023-08-08T05:37:31;2.8;;;6.4;;
74483;SDS011;62942;52.462;10.846;2023-08-08T05:38:31;2.7;;;6.1;;
74483;SDS011;62942;52.462;10.846;2023-08-08T05:39:31;2.6;;;5.2;;
74483;SDS011;62942;52.462;10.846;2023-08-08T05:40:41;2.7;;;5.7;;
74483;SDS011;62942;52.462;10.846;2023-08-08T05:41:41;2.7;;;5.2;;
74483;SDS011;62942;52.462;10.846;2023-08-08T05:42:51;2.5;;;5.1;;
74483;SDS011;62942;52.462;10.846;2023-08-08T05:44:01;2.6;;;5.1;;
74483;SDS011;62942;52.462;10.846;2023-08-08T05:45:11;2.6;;;5.6;;
74483;SDS011;62942;52.462;10.846;2023-08-08T05:46:11;2.7;;;6.3;;
74483;SDS011;62942;52.462;10.846;2023-08-08T05:47:21;2.7;;;6;;
74483;SDS011;62942;52.462;10.846;2023-08-08T05:48:21;2.7;;;5.1;;
74483;SDS011;62942;52.462;10.846;2023-08-08T05:49:21;2.6;;;5.9;;
74483;SDS011;62942;52.462;10.846;2023-08-08T05:50:31;2.5;;;6.1;;
74483;SDS011;62942;52.462;10.846;2023-08-08T05:51:41;2.6;;;6.1;;
74483;SDS011;62942;52.462;10.846;2023-08-08T05:52:51;2.5;;;7;;
74483;SDS011;62942;52.462;10.846;2023-08-08T05:54:01;2.6;;;7.1;;
74483;SDS011;62942;52.462;10.846;2023-08-08T05:55:11;2.7;;;7.7;;
74483;SDS011;62942;52.462;10.846;2023-08-08T05:56:21;2.4;;;4.5;;
74483;SDS011;62942;52.462;10.846;2023-08-08T05:57:21;2.5;;;6.2;;
74483;SDS011;62942;52.462;10.846;2023-08-08T05:58:31;2.4;;;5;;
74483;SDS011;62942;52.462;10.846;2023-08-08T05:59:41;2.3;;;5.4;;
74483;SDS011;62942;52.462;10.846;2023-08-08T06:00:41;2.3;;;4.4;;
74483;SDS011;62942;52.462;10.846;2023-08-08T06:01:51;2.1;;;5.3;;
74483;SDS011;62942;52.462;10.846;2023-08-08T06:02:51;2.6;;;6.3;;
74483;SDS011;62942;52.462;10.846;2023-08-08T06:04:01;2.3;;;4.4;;
74483;SDS011;62942;52.462;10.846;2023-08-08T06:05:01;2.4;;;6.5;;
74483;SDS011;62942;52.462;10.846;2023-08-08T06:06:11;2.3;;;6.2;;
74483;SDS011;62942;52.462;10.846;2023-08-08T06:07:21;2.2;;;5.3;;
74483;SDS011;62942;52.462;10.846;2023-08-08T06:08:31;2.6;;;5.1;;
74483;SDS011;62942;52.462;10.846;2023-08-08T06:09:31;2.5;;;6.1;;
74483;SDS011;62942;52.462;10.846;2023-08-08T06:10:41;2.4;;;7.1;;
74483;SDS011;62942;52.462;10.846;2023-08-08T06:11:41;2.5;;;6.9;;
74483;SDS011;62942;52.462;10.846;2023-08-08T06:12:51;2.3;;;4.5;;
74483;SDS011;62942;52.462;10.846;2023-08-08T06:14:01;2.6;;;5.8;;
74483;SDS011;62942;52.462;10.846;2023-08-08T06:15:11;2.3;;;5.3;;
74483;SDS011;62942;52.462;10.846;2023-08-08T06:16:21;2.4;;;4.9;;
74483;SDS011;62942;52.462;10.846;2023-08-08T06:17:31;2.3;;;5.3;;
74483;SDS011;62942;52.462;10.846;2023-08-08T06:18:31;2.4;;;5.7;;
74483;SDS011;62942;52.462;10.846;2023-08-08T06:19:31;2.3;;;5.2;;
74483;SDS011;62942;52.462;10.846;2023-08-08T06:20:41;2.4;;;4.8;;
74483;SDS011;62942;52.462;10.846;2023-08-08T06:21:41;2.3;;;4.8;;
74483;SDS011;62942;52.462;10.846;2023-08-08T06:22:41;2.1;;;5.3;;
74483;SDS011;62942;52.462;10.846;2023-08-08T06:23:41;2.4;;;5.1;;
74483;SDS011;62942;52.462;10.846;2023-08-08T06:24:51;2.4;;;5.8;;
74483;SDS011;62942;52.462;10.846;2023-08-08T06:26:01;2.3;;;6.8;;
74483;SDS011;62942;52.462;10.846;2023-08-08T06:27:12;2.3;;;4.9;;
74483;SDS011;62942;52.462;10.846;2023-08-08T06:28:21;2.3;;;4.9;;
74483;SDS011;62942;52.462;10.846;2023-08-08T06:29:31;2.4;;;5.1;;
74483;SDS011;62942;52.462;10.846;2023-08-08T06:30:41;2.5;;;5.9;;
74483;SDS011;62942;52.462;10.846;2023-08-08T06:31:41;2.4;;;6.1;;
74483;SDS011;62942;52.462;10.846;2023-08-08T06:32:41;2.2;;;5.3;;
74483;SDS011;62942;52.462;10.846;2023-08-08T06:33:51;2.6;;;5.5;;
74483;SDS011;62942;52.462;10.846;2023-08-08T06:35:01;2.5;;;5.3;;
74483;SDS011;62942;52.462;10.846;2023-08-08T06:36:01;2.6;;;6.3;;
74483;SDS011;62942;52.462;10.846;2023-08-08T06:37:01;2.2;;;5.3;;
74483;SDS011;62942;52.462;10.846;2023-08-08T06:38:11;2.5;;;6.7;;
74483;SDS011;62942;52.462;10.846;2023-08-08T06:39:11;2.3;;;5.5;;
74483;SDS011;62942;52.462;10.846;2023-08-08T06:40:21;2;;;5;;
74483;SDS011;62942;52.462;10.846;2023-08-08T06:41:21;2.6;;;7.4;;
74483;SDS011;62942;52.462;10.846;2023-08-08T06:42:31;2.3;;;5.2;;
74483;SDS011;62942;52.462;10.846;2023-08-08T06:43:31;2.3;;;5;;
74483;SDS011;62942;52.462;10.846;2023-08-08T06:44:41;2.4;;;6.1;;
74483;SDS011;62942;52.462;10.846;2023-08-08T06:45:51;2.2;;;6.2;;
74483;SDS011;62942;52.462;10.846;2023-08-08T06:47:01;2.5;;;5.4;;
74483;SDS011;62942;52.462;10.846;2023-08-08T06:48:11;2.5;;;6.4;;
74483;SDS011;62942;52.462;10.846;2023-08-08T06:49:11;2.4;;;6.8;;